createdAt,value
2022-11-26T00:02:24.837Z,6.47
2022-11-26T00:04:56.807Z,5.97
2022-11-26T00:07:30.880Z,6.43
2022-11-26T00:10:05.032Z,6.70
2022-11-26T00:12:37.878Z,7.43
2022-11-26T00:15:19.530Z,6.38
2022-11-26T00:17:50.251Z,5.80
2022-11-26T00:20:22.194Z,6.15
2022-11-26T00:22:55.991Z,7.03
2022-11-26T00:25:33.120Z,6.25
2022-11-26T00:28:03.558Z,6.47
2022-11-26T00:30:34.026Z,6.55
2022-11-26T00:33:04.630Z,6.97
2022-11-26T00:35:35.115Z,6.80
2022-11-26T00:38:06.014Z,7.25
2022-11-26T00:40:39.205Z,7.25
2022-11-26T00:43:12.383Z,6.78
2022-11-26T00:45:43.311Z,6.55
2022-11-26T00:48:13.885Z,6.10
2022-11-26T00:50:48.369Z,6.03
2022-11-26T00:53:23.146Z,6.97
2022-11-26T00:55:56.114Z,6.35
2022-11-26T00:58:30.499Z,6.72
2022-11-26T01:01:02.711Z,7.32
2022-11-26T01:03:33.227Z,6.90
2022-11-26T01:06:03.708Z,6.40
2022-11-26T01:08:37.974Z,6.50
2022-11-26T01:11:14.161Z,6.40
2022-11-26T01:13:45.416Z,6.63
2022-11-26T01:16:24.729Z,6.20
2022-11-26T01:18:59.012Z,5.88
2022-11-26T01:21:31.777Z,5.60
2022-11-26T01:24:02.349Z,6.28
2022-11-26T01:26:42.381Z,5.75
2022-11-26T01:29:18.080Z,6.03
2022-11-26T01:31:49.360Z,5.97
2022-11-26T01:34:19.838Z,5.93
2022-11-26T01:36:50.339Z,6.35
2022-11-26T01:39:25.224Z,6.28
2022-11-26T01:42:09.159Z,5.38
2022-11-26T01:44:41.334Z,6.20
2022-11-26T01:47:25.004Z,6.00
2022-11-26T01:50:48.278Z,5.80
2022-11-26T01:53:40.928Z,7.55
2022-11-26T01:56:22.116Z,5.97
2022-11-26T02:01:28.723Z,5.93
2022-11-26T02:04:11.400Z,6.60
2022-11-26T02:06:43.860Z,6.68
2022-11-26T02:09:15.791Z,6.22
2022-11-26T02:11:46.668Z,6.00
2022-11-26T02:14:24.198Z,6.75
2022-11-26T02:17:24.599Z,6.97
2022-11-26T02:20:44.448Z,7.03
2022-11-26T02:23:56.246Z,7.03
2022-11-26T02:27:11.244Z,6.70
2022-11-26T02:30:05.424Z,7.38
2022-11-26T02:32:45.635Z,6.60
2022-11-26T02:35:23.785Z,7.30
2022-11-26T02:37:59.785Z,6.65
2022-11-26T02:40:30.298Z,7.20
2022-11-26T02:43:00.747Z,6.97
2022-11-26T02:45:38.602Z,8.00
2022-11-26T02:48:15.000Z,7.10
2022-11-26T02:50:50.758Z,8.40
2022-11-26T02:53:25.789Z,7.35
2022-11-26T02:56:05.095Z,7.90
2022-11-26T02:58:36.782Z,6.65
2022-11-26T03:01:15.226Z,7.53
2022-11-26T03:03:53.177Z,6.93
2022-11-26T03:06:25.566Z,7.78
2022-11-26T03:08:57.650Z,7.03
2022-11-26T03:11:28.190Z,6.78
2022-11-26T03:13:58.705Z,6.57
2022-11-26T03:16:32.448Z,6.68
2022-11-26T03:19:03.074Z,6.43
2022-11-26T03:21:35.211Z,7.63
2022-11-26T03:24:05.676Z,6.68
2022-11-26T03:26:36.173Z,7.05
2022-11-26T03:29:06.629Z,6.20
2022-11-26T03:31:39.739Z,7.78
2022-11-26T03:34:10.168Z,7.15
2022-11-26T03:36:40.810Z,7.00
2022-11-26T03:39:11.280Z,7.28
2022-11-26T03:41:44.223Z,6.43
2022-11-26T03:44:15.743Z,7.18
2022-11-26T03:46:48.829Z,20.90
2022-11-26T03:49:20.179Z,10.23
2022-11-26T03:51:50.542Z,7.60
2022-11-26T03:54:20.976Z,6.72
2022-11-26T03:56:51.426Z,7.10
2022-11-26T03:59:21.908Z,7.75
2022-11-26T04:01:55.106Z,8.55
2022-11-26T04:04:25.695Z,7.43
2022-11-26T04:06:56.185Z,7.18
2022-11-26T04:09:27.076Z,9.85
2022-11-26T04:11:57.866Z,8.57
2022-11-26T04:14:28.552Z,6.85
2022-11-26T04:17:01.722Z,6.47
2022-11-26T04:19:32.387Z,7.13
2022-11-26T04:22:02.908Z,7.50
2022-11-26T04:24:33.493Z,6.97
2022-11-26T04:27:03.908Z,7.15
2022-11-26T04:29:34.570Z,8.33
2022-11-26T04:32:09.233Z,7.30
2022-11-26T04:34:40.176Z,7.13
2022-11-26T04:37:10.762Z,7.75
2022-11-26T04:39:41.212Z,7.40
2022-11-26T04:42:11.652Z,7.82
2022-11-26T04:44:42.101Z,8.82
2022-11-26T04:47:15.131Z,7.90
2022-11-26T04:49:45.512Z,8.27
2022-11-26T04:52:15.972Z,7.45
2022-11-26T04:54:46.332Z,8.57
2022-11-26T04:57:16.704Z,7.87
2022-11-26T04:59:47.207Z,9.48
2022-11-26T05:02:20.333Z,8.70
2022-11-26T05:04:50.892Z,8.70
2022-11-26T05:07:21.743Z,8.88
2022-11-26T05:09:52.317Z,9.32
2022-11-26T05:12:22.770Z,8.75
2022-11-26T05:14:53.191Z,9.27
2022-11-26T05:17:26.343Z,9.50
2022-11-26T05:19:56.759Z,9.90
2022-11-26T05:22:27.440Z,10.75
2022-11-26T05:24:57.858Z,11.07
2022-11-26T05:27:28.292Z,10.70
2022-11-26T05:29:58.829Z,11.40
2022-11-26T05:32:31.873Z,12.13
2022-11-26T05:35:02.354Z,13.10
2022-11-26T05:37:32.810Z,14.77
2022-11-26T05:40:03.236Z,15.23
2022-11-26T05:42:33.712Z,17.02
2022-11-26T05:45:04.309Z,19.25
2022-11-26T05:47:37.348Z,20.27
2022-11-26T05:50:09.253Z,19.92
2022-11-26T05:52:39.701Z,20.77
2022-11-26T05:55:12.593Z,23.00
2022-11-26T05:57:42.932Z,23.90
2022-11-26T06:00:15.876Z,23.07
2022-11-26T06:02:49.196Z,21.63
2022-11-26T06:05:20.151Z,22.45
2022-11-26T06:07:50.640Z,21.00
2022-11-26T06:10:24.276Z,21.75
2022-11-26T06:12:54.759Z,20.35
2022-11-26T06:15:25.400Z,31.00
2022-11-26T06:17:58.536Z,22.00
2022-11-26T06:20:29.061Z,22.30
2022-11-26T06:22:59.509Z,22.52
2022-11-26T06:25:29.906Z,21.60
2022-11-26T06:28:00.370Z,21.65
2022-11-26T06:30:30.945Z,22.02
2022-11-26T06:33:04.026Z,24.70
2022-11-26T06:35:34.495Z,19.15
2022-11-26T06:38:04.975Z,17.05
2022-11-26T06:40:35.480Z,16.95
2022-11-26T06:43:05.942Z,17.40
2022-11-26T06:45:38.154Z,17.10
2022-11-26T06:48:11.285Z,17.67
2022-11-26T06:50:41.642Z,18.27
2022-11-26T06:53:12.021Z,17.80
2022-11-26T06:55:42.446Z,16.07
2022-11-26T06:58:14.828Z,17.17
2022-11-26T07:00:45.230Z,16.25
2022-11-26T07:03:23.599Z,16.48
2022-11-26T07:05:55.676Z,15.43
2022-11-26T07:08:26.134Z,14.55
2022-11-26T07:10:56.577Z,13.45
2022-11-26T07:13:27.124Z,13.63
2022-11-26T07:15:57.549Z,13.95
2022-11-26T07:18:30.632Z,13.88
2022-11-26T07:21:06.377Z,11.82
2022-11-26T07:23:37.173Z,13.38
2022-11-26T07:26:09.717Z,26.13
2022-11-26T07:28:40.584Z,14.75
2022-11-26T07:31:16.812Z,11.95
2022-11-26T07:33:50.827Z,10.93
2022-11-26T07:36:24.820Z,12.07
2022-11-26T07:38:57.619Z,14.20
2022-11-26T07:41:29.626Z,11.82
2022-11-26T07:44:00.092Z,11.55
2022-11-26T07:46:30.690Z,11.10
2022-11-26T07:49:03.778Z,10.68
2022-11-26T07:51:36.952Z,11.40
2022-11-26T07:54:09.872Z,11.07
2022-11-26T07:56:41.007Z,10.38
2022-11-26T08:01:41.804Z,9.90
2022-11-26T08:04:15.039Z,11.07
2022-11-26T08:06:45.366Z,10.85
2022-11-26T08:09:15.940Z,10.25
2022-11-26T08:11:46.466Z,10.15
2022-11-26T08:14:16.961Z,10.60
2022-11-26T08:16:47.416Z,9.80
2022-11-26T08:19:20.488Z,10.18
2022-11-26T08:21:50.871Z,11.25
2022-11-26T08:24:23.955Z,10.73
2022-11-26T08:26:54.414Z,11.25
2022-11-26T08:29:24.875Z,9.63
2022-11-26T08:31:55.427Z,10.27
2022-11-26T08:34:28.778Z,9.55
2022-11-26T08:36:59.443Z,10.23
2022-11-26T08:39:30.135Z,9.40
2022-11-26T08:42:00.984Z,9.65
2022-11-26T08:44:31.460Z,10.60
2022-11-26T08:47:01.942Z,9.98
2022-11-26T08:49:35.216Z,9.93
2022-11-26T08:52:05.744Z,9.90
2022-11-26T08:54:38.758Z,9.93
2022-11-26T08:57:12.684Z,9.38
2022-11-26T08:59:43.133Z,9.38
2022-11-26T09:02:18.798Z,8.50
2022-11-26T09:04:52.391Z,8.95
2022-11-26T09:07:23.206Z,9.30
2022-11-26T09:09:53.746Z,8.50
2022-11-26T09:12:24.716Z,9.48
2022-11-26T09:14:55.404Z,9.05
2022-11-26T09:17:25.990Z,8.90
2022-11-26T09:19:59.384Z,8.68
2022-11-26T09:22:29.826Z,8.38
2022-11-26T09:25:00.975Z,8.50
2022-11-26T09:30:02.115Z,9.77
2022-11-26T09:32:34.585Z,9.63
2022-11-26T09:35:08.757Z,9.73
2022-11-26T09:37:39.133Z,8.88
2022-11-26T09:40:14.165Z,8.30
2022-11-26T09:42:58.663Z,8.10
2022-11-26T09:45:41.846Z,7.60
2022-11-26T09:48:19.710Z,8.93
2022-11-26T09:50:56.711Z,8.93
2022-11-26T09:53:30.469Z,7.38
2022-11-26T09:56:02.141Z,7.35
2022-11-26T09:58:42.153Z,6.10
2022-11-26T10:01:25.491Z,5.30
2022-11-26T10:03:56.008Z,6.13
2022-11-26T10:06:43.300Z,4.93
2022-11-26T10:09:36.852Z,5.38
2022-11-26T10:12:25.787Z,5.30
2022-11-26T10:15:04.021Z,6.22
2022-11-26T10:17:45.611Z,5.30
2022-11-26T10:20:48.350Z,7.43
2022-11-26T10:23:30.432Z,4.97
2022-11-26T10:26:15.954Z,4.75
2022-11-26T10:28:50.597Z,4.68
2022-11-26T10:31:26.566Z,5.32
2022-11-26T10:34:02.180Z,4.40
2022-11-26T10:36:39.487Z,4.75
2022-11-26T10:39:17.808Z,4.75
2022-11-26T10:41:48.854Z,5.05
